Time;durP1;ratioP1;P1;durP2;ratioP2;P2;SDS_P1;SDS_P2;PMS_P1;PMS_P2;Temp;Humidity;BMP_temperature;BMP_pressure;BME280_temperature;BME280_humidity;BME280_pressure;Samples;Min_cycle;Max_cycle;Signal;HPM_P1;HPM_P2
2021/12/07 00:02:09;;;;;;;6.07;4.63;;;;;;;16.30;48.08;94987.69;10634645;27;20096;-81
2021/12/07 00:07:11;;;;;;;5.60;4.35;;;;;;;16.28;48.12;94990.50;10668465;27;20125;-81
2021/12/07 00:12:13;;;;;;;6.93;4.68;;;;;;;16.25;47.94;94988.34;10669769;27;20396;-81
2021/12/07 00:17:15;;;;;;;5.93;4.43;;;;;;;16.25;48.06;94996.16;10651364;27;20423;-82
2021/12/07 00:22:17;;;;;;;5.95;4.40;;;;;;;16.24;48.03;94985.94;10651044;27;20400;-81
2021/12/07 00:27:19;;;;;;;6.75;4.53;;;;;;;16.22;48.13;94988.78;10669137;27;20042;-83
2021/12/07 00:33:09;;;;;;;5.43;4.32;;;;;;;16.20;48.44;94985.59;10633132;27;20065;-79
2021/12/07 00:37:56;;;;;;;6.03;4.50;;;;;;;16.19;47.88;94972.78;10664834;27;20496;-82
2021/12/07 00:42:59;;;;;;;5.82;4.28;;;;;;;16.17;48.24;94956.59;10668668;27;20455;-82
2021/12/07 00:48:03;;;;;;;6.97;4.25;;;;;;;16.17;48.22;94962.59;10650116;27;20039;-81
2021/12/07 00:53:06;;;;;;;6.03;4.60;;;;;;;16.14;48.19;94961.22;10668453;27;20035;-80
2021/12/07 00:58:18;;;;;;;7.03;4.78;;;;;;;16.14;48.02;94963.03;10667898;27;20035;-80
2021/12/07 01:03:22;;;;;;;7.40;4.30;;;;;;;16.12;48.19;94954.66;10649037;27;20495;-81
2021/12/07 01:08:54;;;;;;;5.57;4.50;;;;;;;16.12;48.27;94946.84;10667061;27;20131;-80
2021/12/07 01:24:44;;;;;;;6.60;4.70;;;;;;;16.08;48.36;94936.09;10626899;27;20042;-81
2021/12/07 01:29:49;;;;;;;;;;;;;;;16.09;48.35;94921.25;10666991;27;20134;-80
2021/12/07 01:35:44;;;;;;;5.70;4.10;;;;;;;16.07;48.04;94924.06;10648078;27;20283;-81
2021/12/07 02:00:54;;;;;;;6.85;3.97;;;;;;;16.02;48.36;94925.72;10665871;27;20046;-80
2021/12/07 02:05:57;;;;;;;7.03;4.03;;;;;;;16.01;48.42;94924.94;10646873;27;20442;-80
2021/12/07 02:11:01;;;;;;;5.20;3.50;;;;;;;16.01;48.36;94919.75;10647183;27;20045;-81
2021/12/07 02:16:06;;;;;;;4.40;3.63;;;;;;;16.00;48.36;94915.53;10646613;27;20042;-80
2021/12/07 02:21:22;;;;;;;5.55;3.60;;;;;;;16.00;48.22;94909.53;10646586;27;20046;-79
2021/12/07 02:26:31;;;;;;;9.27;3.95;;;;;;;16.00;48.44;94907.72;10663537;27;20046;-80
2021/12/07 02:31:33;;;;;;;5.25;3.33;;;;;;;15.98;48.23;94899.34;10650516;27;20046;-83
2021/12/07 02:36:36;;;;;;;4.35;3.40;;;;;;;15.99;48.35;94893.16;10673824;27;20071;-81
2021/12/07 02:41:39;;;;;;;5.10;3.33;;;;;;;15.98;48.30;94883.72;10654874;27;20073;-80
2021/12/07 02:46:41;;;;;;;5.43;3.40;;;;;;;15.98;48.29;94885.56;10655034;27;20049;-81
2021/12/07 02:51:43;;;;;;;6.03;3.10;;;;;;;15.97;48.54;94895.16;10654477;27;20502;-80
2021/12/07 02:56:45;;;;;;;4.55;3.70;;;;;;;15.96;48.62;94888.38;10654359;27;20183;-79
2021/12/07 03:02:02;;;;;;;5.85;3.17;;;;;;;15.96;48.37;94886.56;10637097;27;20078;-80
2021/12/07 03:07:27;;;;;;;4.82;3.05;;;;;;;15.97;47.98;94897.75;10636689;27;20034;-80
2021/12/07 03:28:38;;;;;;;3.20;2.70;;;;;;;15.94;48.50;94919.81;10610731;27;20047;-82
2021/12/07 03:33:40;;;;;;;3.95;3.10;;;;;;;15.94;48.42;94919.81;10593373;27;20050;-80
2021/12/07 03:38:42;;;;;;;4.43;3.10;;;;;;;15.94;48.22;94927.63;10650734;27;20047;-83
2021/12/07 03:43:45;;;;;;;3.10;2.80;;;;;;;15.93;48.22;94930.44;10634806;27;20049;-80
2021/12/07 03:48:51;;;;;;;4.30;3.08;;;;;;;15.93;48.39;94923.44;10652234;27;20063;-80
2021/12/07 03:53:53;;;;;;;3.95;2.90;;;;;;;15.93;48.17;94920.81;10668814;27;20045;-80
2021/12/07 03:58:55;;;;;;;2.85;2.30;;;;;;;15.92;48.13;94921.84;10651384;27;20043;-80
2021/12/07 04:04:01;;;;;;;3.95;2.58;;;;;;;15.92;48.23;94924.47;10651089;27;20054;-81
2021/12/07 04:09:04;;;;;;;4.25;2.50;;;;;;;15.91;48.17;94930.66;10651438;27;20094;-80
2021/12/07 04:14:07;;;;;;;5.07;2.65;;;;;;;15.92;48.43;94913.22;10668288;27;20057;-81
2021/12/07 04:19:09;;;;;;;4.55;2.50;;;;;;;15.92;47.95;94910.63;10650934;27;20103;-80
2021/12/07 04:24:11;;;;;;;2.83;2.53;;;;;;;15.90;48.34;94910.06;10650109;27;20053;-81
2021/12/07 04:29:13;;;;;;;3.22;2.60;;;;;;;15.91;48.23;94919.47;10668449;27;20043;-81
2021/12/07 04:34:14;;;;;;;3.13;2.38;;;;;;;15.90;48.19;94920.47;10668517;27;20050;-80
2021/12/07 04:39:16;;;;;;;8.05;2.33;;;;;;;15.90;48.13;94913.44;10668446;27;20046;-80
2021/12/07 04:44:21;;;;;;;2.30;2.10;;;;;;;15.90;48.50;94918.66;10649594;27;20049;-80
2021/12/07 04:59:47;;;;;;;2.17;1.95;;;;;;;15.88;48.52;94932.91;10667792;27;20476;-83
2021/12/07 05:04:49;;;;;;;2.63;2.25;;;;;;;15.88;47.86;94933.69;10667410;27;20049;-80
2021/12/07 05:15:13;;;;;;;2.00;1.80;;;;;;;15.87;48.17;94939.13;10666745;27;20039;-80
2021/12/07 05:41:19;;;;;;;2.80;2.13;;;;;;;15.85;48.40;94975.78;10666136;27;20058;-81
2021/12/07 05:46:21;;;;;;;2.15;1.88;;;;;;;15.85;48.13;94977.59;10665647;27;20046;-81
2021/12/07 05:51:23;;;;;;;3.28;1.90;;;;;;;15.85;48.21;94983.56;10665955;27;20042;-83
2021/12/07 05:56:25;;;;;;;5.60;2.15;;;;;;;15.85;48.39;94980.19;10630545;27;20067;-80
2021/12/07 06:01:26;;;;;;;3.00;1.60;;;;;;;15.84;48.30;94987.19;10665625;27;20469;-80
2021/12/07 06:06:28;;;;;;;2.25;1.75;;;;;;;15.84;48.06;94986.41;10629614;27;20058;-83
2021/12/07 06:11:29;;;;;;;3.92;1.80;;;;;;;15.84;47.99;94981.97;10634138;27;20035;-81
2021/12/07 06:16:32;;;;;;;4.47;1.80;;;;;;;15.84;48.19;94983.78;10665436;27;20046;-81
2021/12/07 06:21:34;;;;;;;3.17;1.65;;;;;;;15.85;48.40;94995.81;10664827;27;20038;-81
2021/12/07 06:26:35;;;;;;;2.35;1.60;;;;;;;15.84;48.48;94995.00;10664991;27;20400;-81
2021/12/07 06:31:37;;;;;;;2.83;1.90;;;;;;;15.84;48.11;95002.00;10664938;27;20051;-80
2021/12/07 06:36:39;;;;;;;8.30;2.00;;;;;;;15.83;48.38;95011.63;10664765;27;20070;-78
2021/12/07 06:41:40;;;;;;;26.73;5.38;;;;;;;15.86;51.37;95019.00;10664866;27;20045;-84
2021/12/07 06:46:42;;;;;;;25.58;4.47;;;;;;;15.89;52.58;95022.97;10646212;27;20054;-79
2021/12/07 06:51:46;;;;;;;22.63;4.43;;;;;;;15.91;52.47;95019.16;10645664;27;20046;-82
2021/12/07 06:56:47;;;;;;;14.43;2.25;;;;;;;15.82;46.29;95033.44;10664168;27;20041;-79
2021/12/07 07:01:49;;;;;;;18.95;3.55;;;;;;;15.72;50.78;95040.94;10659841;27;20075;-82
2021/12/07 07:06:51;;;;;;;17.15;3.55;;;;;;;15.73;51.75;95047.72;10662938;27;20392;-79
2021/12/07 07:11:53;;;;;;;26.70;3.45;;;;;;;15.74;52.08;95047.50;10663126;27;20115;-82
2021/12/07 07:16:55;;;;;;;13.05;3.10;;;;;;;15.78;52.64;95058.31;10666180;27;20488;-81
2021/12/07 07:22:01;;;;;;;12.80;3.38;;;;;;;15.82;52.58;95062.06;10670261;27;20046;-84
2021/12/07 07:27:03;;;;;;;26.20;3.25;;;;;;;15.86;52.18;95080.66;10667415;27;20392;-85
2021/12/07 07:32:05;;;;;;;16.98;3.08;;;;;;;15.88;52.29;95076.84;10658198;27;20046;-86
2021/12/07 07:37:06;;;;;;;15.10;3.20;;;;;;;15.90;52.35;95089.63;10667020;27;20046;-87
2021/12/07 07:42:10;;;;;;;15.77;3.20;;;;;;;15.92;52.20;95090.22;10649577;27;20438;-84
2021/12/07 07:47:24;;;;;;;12.52;2.70;;;;;;;15.94;52.00;95107.22;10649183;27;20051;-83
2021/12/07 07:52:26;;;;;;;10.77;2.97;;;;;;;15.96;52.16;95112.22;10670024;27;20505;-85
2021/12/07 07:57:28;;;;;;;11.88;3.47;;;;;;;15.96;51.58;95118.19;10651331;27;20038;-83
2021/12/07 08:02:29;;;;;;;8.05;2.88;;;;;;;15.99;51.84;95121.38;10658377;27;20046;-78
2021/12/07 08:07:31;;;;;;;11.43;2.75;;;;;;;15.99;51.87;95121.38;10663438;27;20073;-77
2021/12/07 08:12:33;;;;;;;6.72;3.22;;;;;;;16.00;52.11;95126.38;10661543;27;20050;-76
2021/12/07 08:17:35;;;;;;;10.07;2.95;;;;;;;16.01;51.53;95125.38;10668169;27;20035;-77
2021/12/07 08:22:36;;;;;;;5.75;2.63;;;;;;;16.01;51.23;95130.56;10667541;27;20468;-78
2021/12/07 08:27:38;;;;;;;8.27;2.88;;;;;;;16.02;51.49;95121.78;10666888;27;20117;-78
2021/12/07 08:32:44;;;;;;;10.18;3.00;;;;;;;16.04;51.62;95143.16;10666981;27;20077;-77
2021/12/07 08:37:47;;;;;;;7.38;2.50;;;;;;;16.04;51.29;95140.56;10666782;27;20046;-78
2021/12/07 08:42:50;;;;;;;5.35;2.70;;;;;;;16.06;51.06;95140.34;10667688;27;20121;-78
2021/12/07 08:47:53;;;;;;;7.78;2.65;;;;;;;16.08;50.77;95146.13;10665525;27;20042;-77
2021/12/07 08:53:02;;;;;;;5.88;2.67;;;;;;;16.07;51.03;95140.16;10640464;27;20043;-77
2021/12/07 09:03:28;;;;;;;3.80;2.60;;;;;;;16.10;50.54;95144.13;10633301;27;20404;-75
2021/12/07 09:08:31;;;;;;;5.40;2.55;;;;;;;16.11;50.19;95153.53;10664830;27;20061;-74
2021/12/07 09:13:34;;;;;;;4.03;2.85;;;;;;;16.12;50.19;95163.72;10661771;27;20086;-73
2021/12/07 09:18:37;;;;;;;4.53;2.40;;;;;;;16.13;50.31;95167.16;10641742;27;20121;-73
2021/12/07 09:23:40;;;;;;;4.45;2.60;;;;;;;16.12;50.44;95187.16;10658193;27;20054;-77
2021/12/07 09:28:42;;;;;;;8.98;3.28;;;;;;;16.13;50.54;95183.56;10643370;27;20492;-88
2021/12/07 09:33:45;;;;;;;5.78;2.80;;;;;;;16.14;50.06;95185.13;10644190;27;20047;-86
2021/12/07 09:38:47;;;;;;;10.80;2.90;;;;;;;16.16;50.38;95184.13;10637959;27;20493;-85
2021/12/07 09:43:50;;;;;;;10.85;3.45;;;;;;;16.17;50.40;95190.94;10664426;27;20047;-82
2021/12/07 09:48:52;;;;;;;9.25;2.50;;;;;;;16.18;50.22;95172.50;10642957;27;20041;-78
2021/12/07 09:53:54;;;;;;;11.93;3.03;;;;;;;16.20;50.30;95172.28;10664508;27;20091;-83
2021/12/07 09:58:59;;;;;;;17.90;3.67;;;;;;;16.21;50.77;95179.88;10646430;27;20050;-81
2021/12/07 10:04:01;;;;;;;24.60;3.45;;;;;;;16.23;51.00;95184.88;10660545;27;20038;-76
2021/12/07 10:09:04;;;;;;;17.73;3.30;;;;;;;16.24;51.09;95176.84;10656795;27;20046;-82
2021/12/07 10:14:06;;;;;;;17.08;3.63;;;;;;;16.25;50.86;95181.03;10658821;27;20035;-83
2021/12/07 10:19:08;;;;;;;13.10;3.97;;;;;;;16.26;50.80;95169.63;10662036;27;20523;-77
2021/12/07 10:24:12;;;;;;;21.38;3.65;;;;;;;16.28;51.01;95170.19;10663556;27;20038;-80
2021/12/07 10:29:19;;;;;;;9.15;3.03;;;;;;;16.29;51.15;95156.16;10654782;27;20377;-81
2021/12/07 10:34:29;;;;;;;11.60;3.30;;;;;;;16.32;51.33;95160.13;10660629;27;20088;-88
2021/12/07 10:39:40;;;;;;;17.40;3.67;;;;;;;16.33;51.00;95159.91;10660599;27;20043;-82
2021/12/07 10:44:42;;;;;;;17.88;3.58;;;;;;;16.36;50.85;95163.13;10656285;27;20035;-77
2021/12/07 10:49:53;;;;;;;17.35;4.18;;;;;;;16.37;51.68;95162.09;10663274;27;20037;-78
2021/12/07 10:55:16;;;;;;;17.73;3.78;;;;;;;16.40;51.06;95175.50;10640909;27;20050;-79
2021/12/07 11:00:27;;;;;;;18.83;3.67;;;;;;;16.42;51.44;95178.69;10672959;27;20137;-77
2021/12/07 11:05:32;;;;;;;11.70;3.47;;;;;;;16.43;50.99;95177.69;10666278;27;20039;-77
2021/12/07 11:10:38;;;;;;;16.70;3.60;;;;;;;16.45;50.66;95185.28;10670272;27;20041;-78
2021/12/07 11:15:50;;;;;;;6.97;3.55;;;;;;;16.46;51.22;95181.66;10672247;27;20046;-81
2021/12/07 11:20:55;;;;;;;12.30;4.28;;;;;;;16.48;50.72;95188.25;10672259;27;20087;-81
2021/12/07 11:31:14;;;;;;;11.10;3.58;;;;;;;16.52;50.05;95174.78;10671492;27;20507;-79
2021/12/07 11:36:18;;;;;;;15.63;4.20;;;;;;;16.53;50.19;95163.34;10670719;27;20035;-80
2021/12/07 11:41:27;;;;;;;19.65;5.03;;;;;;;16.54;50.92;95170.16;10652280;27;20401;-75
2021/12/07 11:46:31;;;;;;;15.10;4.85;;;;;;;16.56;50.77;95170.72;10669268;27;20145;-73
2021/12/07 11:51:33;;;;;;;13.02;5.57;;;;;;;16.56;50.97;95171.53;10654074;27;20088;-74
2021/12/07 11:56:35;;;;;;;14.38;6.00;;;;;;;16.57;50.61;95167.13;10669733;27;20484;-85
2021/12/07 12:01:38;;;;;;;10.70;5.53;;;;;;;16.59;50.60;95162.47;10647137;27;20502;-85
2021/12/07 12:06:42;;;;;;;14.57;6.13;;;;;;;16.59;50.71;95160.69;10666156;27;20484;-87
2021/12/07 12:12:13;;;;;;;11.27;5.80;;;;;;;16.60;50.35;95170.09;10649370;27;20118;-86
2021/12/07 12:17:48;;;;;;;10.10;5.60;;;;;;;16.61;50.29;95157.88;10682420;27;20383;-82
2021/12/07 12:23:02;;;;;;;9.98;5.20;;;;;;;16.64;48.18;95160.03;10679450;27;20046;-86
2021/12/07 12:28:04;;;;;;;10.90;4.55;;;;;;;16.65;49.35;95159.00;10645953;27;20055;-82
2021/12/07 12:33:08;;;;;;;12.20;5.38;;;;;;;16.67;48.79;95136.13;10636636;27;20042;-87
2021/12/07 12:38:33;;;;;;;12.57;4.15;;;;;;;16.69;47.30;95142.72;10666243;27;20038;-87
2021/12/07 12:43:52;;;;;;;16.08;4.72;;;;;;;16.68;48.73;95141.13;10646347;27;20042;-87
2021/12/07 12:49:00;;;;;;;11.10;5.32;;;;;;;16.69;48.94;95132.31;10648591;27;20453;-87
2021/12/07 12:54:01;;;;;;;7.53;4.43;;;;;;;16.70;48.70;95133.09;10666773;27;20039;-87
2021/12/07 12:59:07;;;;;;;7.53;4.88;;;;;;;16.68;48.62;95122.88;10665472;27;20039;-87
2021/12/07 13:04:14;;;;;;;7.65;5.05;;;;;;;16.68;48.02;95122.88;10665854;27;20039;-84
2021/12/07 13:09:19;;;;;;;7.20;4.65;;;;;;;16.68;48.29;95124.72;10666677;27;20039;-85
2021/12/07 13:14:23;;;;;;;8.73;4.35;;;;;;;16.68;48.29;95119.50;10665401;27;20073;-85
2021/12/07 13:19:28;;;;;;;8.32;4.25;;;;;;;16.67;48.47;95116.09;10681709;27;20066;-84
2021/12/07 13:24:32;;;;;;;9.85;4.55;;;;;;;16.66;48.19;95117.09;10660666;27;20399;-85
2021/12/07 13:29:34;;;;;;;11.43;4.72;;;;;;;16.67;48.25;95115.28;10666139;27;20051;-84
2021/12/07 13:34:37;;;;;;;11.25;4.90;;;;;;;16.65;48.49;95112.91;10666367;27;20061;-84
2021/12/07 13:39:49;;;;;;;5.03;4.03;;;;;;;16.66;47.59;95108.50;10665287;27;20042;-84
2021/12/07 13:45:06;;;;;;;10.35;4.53;;;;;;;16.65;47.84;95107.69;10663388;27;20038;-86
2021/12/07 13:50:08;;;;;;;6.28;4.18;;;;;;;16.65;48.74;95109.50;10662512;27;20039;-84
2021/12/07 13:55:16;;;;;;;9.13;4.03;;;;;;;16.66;48.91;95100.69;10665108;27;20087;-86
2021/12/07 14:00:20;;;;;;;;;;;;;;;16.67;48.07;95099.66;10664930;27;20039;-86
2021/12/07 14:05:27;;;;;;;10.57;3.70;;;;;;;16.67;49.14;95104.88;10662038;27;20372;-75
2021/12/07 14:10:34;;;;;;;;;;;;;;;16.68;47.31;95096.84;10661435;27;20035;-77
2021/12/07 14:15:39;;;;;;;7.05;3.25;;;;;;;16.70;49.51;95096.63;10664224;27;19923;-80
2021/12/07 14:20:48;;;;;;;13.73;4.20;;;;;;;16.71;49.71;95089.63;10663159;27;20043;-79
2021/12/07 14:26:16;;;;;;;11.02;3.45;;;;;;;16.70;49.75;95080.97;10646329;27;20380;-78
2021/12/07 14:31:23;;;;;;;5.20;2.90;;;;;;;16.70;49.86;95086.19;10657908;27;20085;-82
2021/12/07 14:36:33;;;;;;;;;;;;;;;16.70;48.27;95091.41;10654029;27;20838;-81
2021/12/07 14:41:42;;;;;;;8.77;3.90;;;;;;;16.68;49.18;95086.41;10670933;27;19923;-82
2021/12/07 14:46:46;;;;;;;8.30;3.47;;;;;;;16.66;49.58;95088.44;10671975;27;20062;-82
2021/12/07 14:51:54;;;;;;;7.40;3.50;;;;;;;16.65;49.23;95088.66;10672145;27;20043;-82
2021/12/07 14:56:55;;;;;;;7.10;3.70;;;;;;;16.64;49.29;95085.28;10671591;27;20503;-82
2021/12/07 15:01:58;;;;;;;5.90;3.65;;;;;;;16.62;49.33;95091.69;10671029;27;20035;-82
2021/12/07 15:07:04;;;;;;;7.90;3.70;;;;;;;16.61;49.04;95087.53;10652794;27;20046;-82
2021/12/07 15:12:09;;;;;;;5.40;3.60;;;;;;;16.59;48.92;95082.53;10669535;27;20103;-82
2021/12/07 15:17:11;;;;;;;15.50;3.55;;;;;;;16.57;49.00;95074.13;10671027;27;20035;-81
2021/12/07 15:22:14;;;;;;;7.53;3.60;;;;;;;16.56;49.43;95080.34;10669851;27;20043;-79
2021/12/07 15:27:21;;;;;;;10.23;3.60;;;;;;;16.56;49.36;95076.94;10668085;27;20388;-74
2021/12/07 15:32:24;;;;;;;9.35;3.70;;;;;;;16.55;49.47;95076.16;10664545;27;20047;-78
2021/12/07 15:37:27;;;;;;;8.82;3.95;;;;;;;16.54;49.88;95071.94;10667085;27;20547;-75
2021/12/07 15:42:34;;;;;;;18.13;3.70;;;;;;;16.53;49.53;95070.38;10668276;27;20053;-77
2021/12/07 15:47:45;;;;;;;12.75;3.70;;;;;;;16.53;49.12;95053.94;10668056;27;20126;-81
2021/12/07 15:52:50;;;;;;;9.48;3.28;;;;;;;16.50;49.93;95048.16;10667547;27;20476;-80
2021/12/07 15:57:57;;;;;;;7.75;2.90;;;;;;;16.49;49.72;95030.13;10668709;27;20042;-79
2021/12/07 16:03:12;;;;;;;7.13;3.38;;;;;;;16.49;49.87;95032.75;10668229;27;20103;-81
2021/12/07 16:08:27;;;;;;;4.38;3.10;;;;;;;16.47;49.93;95021.75;10650428;27;20073;-80
2021/12/07 16:13:31;;;;;;;7.20;2.90;;;;;;;16.45;49.93;95014.16;10647770;27;20384;-82
2021/12/07 16:18:36;;;;;;;7.25;3.10;;;;;;;16.44;49.76;95001.34;10646739;27;20047;-81
2021/12/07 16:23:42;;;;;;;7.22;2.92;;;;;;;16.43;50.00;94994.53;10663317;27;20039;-80
2021/12/07 16:28:51;;;;;;;10.05;2.88;;;;;;;16.43;49.99;94992.75;10647704;27;20077;-82
2021/12/07 16:33:55;;;;;;;7.75;2.90;;;;;;;16.43;50.44;94989.31;10667016;27;20451;-78
2021/12/07 16:38:59;;;;;;;12.60;2.58;;;;;;;16.47;49.11;94982.69;10667701;27;20039;-84
2021/12/07 16:44:02;;;;;;;3.83;2.55;;;;;;;16.47;49.15;94978.25;10648835;27;20049;-85
2021/12/07 16:49:04;;;;;;;6.80;2.20;;;;;;;16.48;49.51;94971.22;10665552;27;20480;-80
2021/12/07 16:54:06;;;;;;;7.10;1.80;;;;;;;16.46;49.07;94965.44;10666092;27;20039;-80
2021/12/07 16:59:08;;;;;;;3.88;2.38;;;;;;;16.45;49.60;94954.25;10665700;27;20037;-81
2021/12/07 17:04:10;;;;;;;3.15;2.00;;;;;;;16.43;49.64;94948.47;10659480;27;20047;-82
2021/12/07 17:09:16;;;;;;;5.63;1.98;;;;;;;16.43;49.80;94950.25;10666112;27;20125;-78
2021/12/07 17:14:17;;;;;;;10.35;2.45;;;;;;;16.40;49.79;94937.69;10665705;27;20051;-80
2021/12/07 17:19:21;;;;;;;4.10;2.10;;;;;;;16.37;49.92;94936.31;10647302;27;20039;-79
2021/12/07 17:24:23;;;;;;;4.72;2.63;;;;;;;16.36;50.44;94916.50;10664168;27;20380;-78
2021/12/07 17:29:25;;;;;;;6.22;2.25;;;;;;;16.33;49.86;94909.91;10665444;27;20062;-78
2021/12/07 17:34:27;;;;;;;7.07;2.20;;;;;;;16.31;50.17;94906.75;10665540;27;20377;-78
2021/12/07 17:39:30;;;;;;;5.18;2.25;;;;;;;16.29;49.94;94897.56;10665571;27;20031;-78
2021/12/07 17:44:32;;;;;;;5.15;2.78;;;;;;;16.27;49.95;94899.59;10665359;27;20494;-77
2021/12/07 17:49:33;;;;;;;6.53;2.53;;;;;;;16.26;49.74;94890.19;10665222;27;20354;-77
2021/12/07 17:54:39;;;;;;;7.75;2.30;;;;;;;16.23;49.63;94881.00;10664305;27;20373;-75
2021/12/07 17:59:42;;;;;;;13.40;2.30;;;;;;;16.23;49.79;94872.41;10664776;27;20491;-77
2021/12/07 18:04:43;;;;;;;6.53;2.53;;;;;;;16.22;49.80;94868.22;10663947;27;20074;-78
2021/12/07 18:09:45;;;;;;;4.00;2.28;;;;;;;16.20;49.70;94858.03;10664343;27;20038;-79
2021/12/07 18:14:48;;;;;;;5.00;2.33;;;;;;;16.19;50.45;94840.81;10664558;27;20045;-74
2021/12/07 18:19:50;;;;;;;7.78;2.75;;;;;;;16.17;50.47;94839.44;10664314;27;20949;-75
2021/12/07 18:24:52;;;;;;;7.28;2.20;;;;;;;16.17;50.25;94826.44;10663148;27;20083;-75
2021/12/07 18:30:07;;;;;;;4.43;2.45;;;;;;;16.14;50.26;94820.63;10664716;27;20552;-75
2021/12/07 18:35:10;;;;;;;2.92;2.20;;;;;;;16.14;50.26;94825.06;10665253;27;20449;-74
2021/12/07 18:40:15;;;;;;;6.03;2.20;;;;;;;16.12;50.24;94801.06;10665187;27;20046;-74
2021/12/07 18:45:17;;;;;;;3.65;2.25;;;;;;;16.10;50.21;94806.50;10646508;27;20051;-74
2021/12/07 18:50:19;;;;;;;3.58;2.10;;;;;;;16.08;49.92;94800.72;10646713;27;20515;-74
2021/12/07 18:55:22;;;;;;;2.50;2.25;;;;;;;16.06;50.22;94805.34;10664790;27;20039;-74
2021/12/07 19:00:32;;;;;;;4.07;2.50;;;;;;;16.07;50.21;94791.31;10664642;27;20370;-74
2021/12/07 19:05:52;;;;;;;3.95;2.00;;;;;;;16.05;49.95;94788.16;10631281;27;20510;-74
2021/12/07 19:10:57;;;;;;;4.07;2.10;;;;;;;16.03;50.10;94782.34;10664553;27;20110;-73
2021/12/07 19:16:00;;;;;;;3.63;2.08;;;;;;;16.02;49.88;94769.56;10654202;27;20396;-74
2021/12/07 19:21:04;;;;;;;4.22;2.15;;;;;;;15.99;49.93;94765.59;10654317;27;20496;-74
2021/12/07 19:26:06;;;;;;;3.63;2.05;;;;;;;15.99;49.88;94755.19;10627026;27;20035;-74
2021/12/07 19:31:08;;;;;;;3.38;2.00;;;;;;;15.95;49.90;94741.84;10652695;27;20518;-74
2021/12/07 19:36:09;;;;;;;2.67;2.17;;;;;;;15.95;49.54;94733.22;10671771;27;20042;-74
2021/12/07 19:41:13;;;;;;;4.93;2.08;;;;;;;15.95;49.85;94728.00;10653720;27;20043;-74
2021/12/07 19:46:24;;;;;;;3.72;2.13;;;;;;;15.93;49.38;94717.81;10671324;27;20137;-74
2021/12/07 19:51:31;;;;;;;5.25;2.33;;;;;;;15.91;49.83;94699.06;10671254;27;20046;-75
2021/12/07 19:56:39;;;;;;;4.13;2.30;;;;;;;15.90;50.03;94691.47;10671084;27;20442;-73
2021/12/07 20:02:01;;;;;;;3.42;2.40;;;;;;;15.89;49.91;94687.25;10670978;27;20042;-73
2021/12/07 20:07:09;;;;;;;3.35;2.42;;;;;;;15.87;49.85;94678.91;10652775;27;20047;-74
2021/12/07 20:12:12;;;;;;;2.83;2.17;;;;;;;15.86;50.22;94672.91;10652144;27;20051;-74
2021/12/07 20:17:18;;;;;;;3.47;2.70;;;;;;;15.84;49.83;94663.72;10670198;27;20039;-73
2021/12/07 20:22:23;;;;;;;5.63;2.80;;;;;;;15.84;49.59;94648.13;10651944;27;20560;-73
2021/12/07 20:27:30;;;;;;;3.72;3.08;;;;;;;15.83;49.94;94643.91;10666323;27;20091;-73
2021/12/07 20:32:31;;;;;;;2.90;2.60;;;;;;;15.81;49.88;94628.53;10669514;27;20047;-73
2021/12/07 20:37:35;;;;;;;3.97;2.97;;;;;;;15.79;49.92;94620.16;10651034;27;20095;-74
2021/12/07 20:42:37;;;;;;;3.95;2.88;;;;;;;15.77;50.13;94623.00;10669111;27;20034;-73
2021/12/07 20:47:39;;;;;;;5.38;2.85;;;;;;;15.77;50.21;94606.59;10668790;27;20041;-73
2021/12/07 20:52:40;;;;;;;4.38;3.10;;;;;;;15.75;50.30;94604.19;10668629;27;20049;-73
2021/12/07 20:57:42;;;;;;;6.38;3.28;;;;;;;15.74;49.71;94591.41;10667399;27;20111;-74
2021/12/07 21:02:45;;;;;;;4.15;3.33;;;;;;;15.73;50.08;94582.81;10668215;27;20373;-74
2021/12/07 21:07:48;;;;;;;4.82;3.10;;;;;;;15.73;49.49;94576.81;10667947;27;20106;-73
2021/12/07 21:12:50;;;;;;;4.28;2.83;;;;;;;15.72;49.40;94564.84;10667950;27;20053;-73
2021/12/07 21:17:52;;;;;;;3.90;3.25;;;;;;;15.70;49.74;94551.25;10667707;27;20047;-73
2021/12/07 21:22:54;;;;;;;4.38;3.38;;;;;;;15.69;50.07;94536.66;10667454;27;20463;-73
2021/12/07 21:27:56;;;;;;;5.88;2.80;;;;;;;15.67;49.89;94507.47;10666299;27;20035;-73
2021/12/07 21:32:59;;;;;;;3.67;2.90;;;;;;;15.65;49.68;94488.69;10648667;27;20065;-73
2021/12/07 21:38:01;;;;;;;5.35;2.88;;;;;;;15.64;49.94;94487.09;10666427;27;20035;-73
2021/12/07 21:43:04;;;;;;;3.35;2.97;;;;;;;15.63;49.61;94483.72;10666703;27;20046;-73
2021/12/07 21:48:06;;;;;;;4.20;3.30;;;;;;;15.62;49.92;94482.16;10666130;27;20393;-71
2021/12/07 21:53:08;;;;;;;3.70;2.95;;;;;;;15.62;49.96;94473.53;10665642;27;20042;-74
2021/12/07 21:58:12;;;;;;;3.17;2.80;;;;;;;15.62;49.37;94465.75;10665900;27;20411;-77
2021/12/07 22:03:15;;;;;;;3.42;2.78;;;;;;;15.60;50.04;94460.78;10654206;27;20046;-75
2021/12/07 22:08:17;;;;;;;4.20;3.00;;;;;;;15.58;50.05;94440.19;10665541;27;20388;-74
2021/12/07 22:13:21;;;;;;;2.97;2.40;;;;;;;15.59;49.92;94436.56;10666071;27;20491;-75
2021/12/07 22:18:23;;;;;;;8.23;2.88;;;;;;;15.57;49.73;94428.22;10665085;27;20069;-74
2021/12/07 22:23:25;;;;;;;4.38;2.80;;;;;;;15.58;49.82;94423.81;10665103;27;20035;-75
2021/12/07 22:28:27;;;;;;;4.60;2.88;;;;;;;15.57;49.71;94404.00;10665141;27;20408;-78
2021/12/07 22:33:28;;;;;;;6.57;2.78;;;;;;;15.56;49.76;94398.03;10664672;27;20030;-75
2021/12/07 22:38:30;;;;;;;2.83;2.50;;;;;;;15.55;49.78;94391.22;10664971;27;20532;-82
2021/12/07 22:43:34;;;;;;;4.75;3.03;;;;;;;15.54;50.00;94371.47;10665196;27;20037;-75
2021/12/07 22:48:36;;;;;;;4.75;2.53;;;;;;;15.53;49.71;94374.28;10670060;27;20073;-83
2021/12/07 22:53:38;;;;;;;8.20;2.80;;;;;;;15.52;50.56;94368.28;10672983;27;20433;-78
2021/12/07 22:58:41;;;;;;;4.57;2.72;;;;;;;15.51;50.38;94358.09;10655715;27;20502;-89
2021/12/07 23:03:44;;;;;;;3.03;2.45;;;;;;;15.50;49.79;94359.13;10673892;27;20082;-86
2021/12/07 23:08:47;;;;;;;3.40;2.58;;;;;;;15.49;49.97;94358.34;10673935;27;20047;-81
2021/12/07 23:13:50;;;;;;;3.58;2.83;;;;;;;15.48;50.37;94337.75;10673724;27;20130;-82
2021/12/07 23:18:52;;;;;;;3.13;2.60;;;;;;;15.49;50.22;94331.56;10673743;27;20122;-77
2021/12/07 23:24:00;;;;;;;3.15;2.55;;;;;;;15.47;50.09;94312.78;10680811;27;20043;-80
2021/12/07 23:29:04;;;;;;;2.50;2.30;;;;;;;15.46;50.22;94298.97;10694299;27;20054;-75
2021/12/07 23:34:05;;;;;;;2.53;2.30;;;;;;;15.46;50.12;94288.59;10678943;27;20043;-78
2021/12/07 23:39:09;;;;;;;2.70;2.33;;;;;;;15.44;50.70;94279.44;10672710;27;20091;-81
2021/12/07 23:44:11;;;;;;;3.05;2.75;;;;;;;15.44;50.76;94274.25;10672414;27;20488;-78
2021/12/07 23:49:12;;;;;;;3.88;2.50;;;;;;;15.42;50.72;94262.25;10672245;27;20524;-84
2021/12/07 23:54:14;;;;;;;3.38;2.33;;;;;;;15.44;50.39;94279.44;10671927;27;20042;-77
2021/12/07 23:59:16;;;;;;;2.63;2.40;;;;;;;15.43;50.20;94268.28;10671570;27;20047;-79
